Terminal Aerodrome Forecast
Issued by NWS Brownsville, TX

Home | Current Version | Previous Version | Text Only | Print | Product List | Glossary On
Versions: 1 2 3 4 5 6 7 8 9 10 11 12 13 14 15
029
FTUS44 KBRO 230520
TAFHRL
TAF
KHRL 230520Z 2306/2406 16012KT P6SM SCT015
     FM231500 16020G28KT P6SM SCT040
     FM240000 14015G22KT P6SM FEW030
     FM240200 15010KT P6SM FEW020=

USA.gov is the U.S. government's official web portal to all federal, state and local government web resources and services.